Montauk, NY

11:36 PM EDT on September 29, 2016 (GMT -0400)
Montauk | | Change Station

Elev 7 ft 41.07 °N, 71.92 °W | Updated 42 minutes ago

Rain
Rain
60 °F
Feels Like 60 °F
N
16
Wind Variable Wind from ENE
Gusts 28 mph

Today
High -- | Low -- °F
--% Chance of Precip.
Yesterday
High -- | Low -- °F
Precip. -- in
Pressure 30.42 in
Visibility -9999.0 miles
Clouds
Dew Point 53 °F
Humidity 78%
Rainfall 0.00 in
Snow Depth Not available.
6:42 AM 6:32 PM
Waning Crescent, 1% visible
METAR KMTP 300254Z AUTO 06014G24KT 16/12 A3042 RMK AO1 SLP301 T01560117 50004
Pressure 30.42 in
Visibility -9999.0 miles
Clouds
Dew Point 53 °F
Humidity 78%
Rainfall 0.00 in
Snow Depth Not available.
6:42 AM 6:32 PM
Waning Crescent, 1% visible
METAR KMTP 300254Z AUTO 06014G24KT 16/12 A3042 RMK AO1 SLP301 T01560117 50004

10-Day Weather Forecast

Almanac

Astronomy

Sep. 29, 2016 Rise Set
Actual Time
Civil Twilight
Nautical Twilight
Astronomical Twilight
Moon
Length of Visible Light
Length of Day
Tomorrow will be .
, % of the Moon is Illuminated

Today's Extremes

State Highs State Lows

Community

WunderPhotos

Upload Photos

1,942,652 photos uploaded!

WunderBlog® & News

Nearby

Air Quality

  Air Quality AQ Index Pollutant
Not available.

Snow Depth

Station Depth Elevation

Earthquake Activity

City Distance Mag. Time & Date
Minimum magnitude displayed is 2.5.

Coastal Water Temperatures

Place Temperature

Stations

Nearby Weather Stations

Station Location Temp. Windchill Dew Point Humidity Wind Precip. Elev Updated Type
                   

Watches & Warnings

There are currently no watches in effect.